sensor_id;sensor_type;location;lat;lon;timestamp;temperature;humidity
68217;DHT22;55037;52.354;4.992;2023-03-19T00:02:04;12.50;89.70
68217;DHT22;55037;52.354;4.992;2023-03-19T00:04:45;12.50;89.70
68217;DHT22;55037;52.354;4.992;2023-03-19T00:07:13;12.50;89.70
68217;DHT22;55037;52.354;4.992;2023-03-19T00:09:42;12.50;89.70
68217;DHT22;55037;52.354;4.992;2023-03-19T00:12:10;12.50;89.70
68217;DHT22;55037;52.354;4.992;2023-03-19T00:14:38;12.60;89.70
68217;DHT22;55037;52.354;4.992;2023-03-19T00:17:05;12.60;89.70
68217;DHT22;55037;52.354;4.992;2023-03-19T00:19:33;12.60;89.80
68217;DHT22;55037;52.354;4.992;2023-03-19T00:22:00;12.60;89.80
68217;DHT22;55037;52.354;4.992;2023-03-19T00:24:28;12.60;89.80
68217;DHT22;55037;52.354;4.992;2023-03-19T00:26:55;12.60;89.70
68217;DHT22;55037;52.354;4.992;2023-03-19T00:29:23;12.60;89.80
68217;DHT22;55037;52.354;4.992;2023-03-19T00:31:50;12.60;89.70
68217;DHT22;55037;52.354;4.992;2023-03-19T00:34:17;12.60;89.90
68217;DHT22;55037;52.354;4.992;2023-03-19T00:36:45;12.60;90.10
68217;DHT22;55037;52.354;4.992;2023-03-19T00:39:13;12.60;90.00
68217;DHT22;55037;52.354;4.992;2023-03-19T00:41:40;12.60;90.00
68217;DHT22;55037;52.354;4.992;2023-03-19T00:44:07;12.60;90.00
68217;DHT22;55037;52.354;4.992;2023-03-19T00:46:34;12.60;89.90
68217;DHT22;55037;52.354;4.992;2023-03-19T00:49:03;12.60;89.70
68217;DHT22;55037;52.354;4.992;2023-03-19T00:51:30;12.70;90.00
68217;DHT22;55037;52.354;4.992;2023-03-19T00:53:58;12.70;89.80
68217;DHT22;55037;52.354;4.992;2023-03-19T00:56:25;12.70;90.00
68217;DHT22;55037;52.354;4.992;2023-03-19T00:58:52;12.70;89.80
68217;DHT22;55037;52.354;4.992;2023-03-19T01:01:19;12.70;89.80
68217;DHT22;55037;52.354;4.992;2023-03-19T01:03:46;12.70;89.80
68217;DHT22;55037;52.354;4.992;2023-03-19T01:06:14;12.70;89.80
68217;DHT22;55037;52.354;4.992;2023-03-19T01:08:41;12.70;89.80
68217;DHT22;55037;52.354;4.992;2023-03-19T01:11:12;12.70;89.80
68217;DHT22;55037;52.354;4.992;2023-03-19T01:13:40;12.80;89.80
68217;DHT22;55037;52.354;4.992;2023-03-19T01:16:08;12.80;90.20
68217;DHT22;55037;52.354;4.992;2023-03-19T01:18:36;12.70;89.50
68217;DHT22;55037;52.354;4.992;2023-03-19T01:21:04;12.70;89.70
68217;DHT22;55037;52.354;4.992;2023-03-19T01:23:35;12.80;89.40
68217;DHT22;55037;52.354;4.992;2023-03-19T01:26:02;12.70;89.50
68217;DHT22;55037;52.354;4.992;2023-03-19T01:28:30;12.70;90.30
68217;DHT22;55037;52.354;4.992;2023-03-19T01:31:04;12.70;89.70
68217;DHT22;55037;52.354;4.992;2023-03-19T01:33:52;12.70;89.70
68217;DHT22;55037;52.354;4.992;2023-03-19T01:36:33;12.70;89.60
68217;DHT22;55037;52.354;4.992;2023-03-19T01:39:02;12.80;89.70
68217;DHT22;55037;52.354;4.992;2023-03-19T01:41:30;12.80;89.60
68217;DHT22;55037;52.354;4.992;2023-03-19T01:44:27;12.80;89.40
68217;DHT22;55037;52.354;4.992;2023-03-19T01:50:28;12.70;89.10
68217;DHT22;55037;52.354;4.992;2023-03-19T01:53:16;12.70;89.20
68217;DHT22;55037;52.354;4.992;2023-03-19T01:58:56;12.60;88.90
68217;DHT22;55037;52.354;4.992;2023-03-19T02:01:55;12.60;89.00
68217;DHT22;55037;52.354;4.992;2023-03-19T02:04:26;12.50;89.20
68217;DHT22;55037;52.354;4.992;2023-03-19T02:06:55;12.60;89.70
68217;DHT22;55037;52.354;4.992;2023-03-19T02:09:25;12.60;89.70
68217;DHT22;55037;52.354;4.992;2023-03-19T02:11:54;12.60;89.50
68217;DHT22;55037;52.354;4.992;2023-03-19T02:14:22;12.60;89.10
68217;DHT22;55037;52.354;4.992;2023-03-19T02:16:50;12.60;89.30
68217;DHT22;55037;52.354;4.992;2023-03-19T02:22:27;12.50;89.00
68217;DHT22;55037;52.354;4.992;2023-03-19T02:25:01;12.50;88.90
68217;DHT22;55037;52.354;4.992;2023-03-19T02:27:31;12.40;88.90
68217;DHT22;55037;52.354;4.992;2023-03-19T02:29:58;12.30;89.00
68217;DHT22;55037;52.354;4.992;2023-03-19T02:32:27;12.30;89.10
68217;DHT22;55037;52.354;4.992;2023-03-19T02:34:55;12.20;89.00
68217;DHT22;55037;52.354;4.992;2023-03-19T02:37:25;12.10;89.10
68217;DHT22;55037;52.354;4.992;2023-03-19T02:40:00;12.10;89.20
68217;DHT22;55037;52.354;4.992;2023-03-19T02:42:30;12.00;89.00
68217;DHT22;55037;52.354;4.992;2023-03-19T02:44:57;12.00;89.00
68217;DHT22;55037;52.354;4.992;2023-03-19T02:47:25;11.90;88.90
68217;DHT22;55037;52.354;4.992;2023-03-19T02:49:53;11.80;88.80
68217;DHT22;55037;52.354;4.992;2023-03-19T02:52:22;11.80;88.80
68217;DHT22;55037;52.354;4.992;2023-03-19T02:54:49;11.80;88.90
68217;DHT22;55037;52.354;4.992;2023-03-19T02:57:17;11.70;88.90
68217;DHT22;55037;52.354;4.992;2023-03-19T02:59:44;11.70;88.80
68217;DHT22;55037;52.354;4.992;2023-03-19T03:02:12;11.60;88.70
68217;DHT22;55037;52.354;4.992;2023-03-19T03:04:40;11.60;88.80
68217;DHT22;55037;52.354;4.992;2023-03-19T03:07:08;11.50;88.90
68217;DHT22;55037;52.354;4.992;2023-03-19T03:09:35;11.50;89.00
68217;DHT22;55037;52.354;4.992;2023-03-19T03:12:03;11.50;89.00
68217;DHT22;55037;52.354;4.992;2023-03-19T03:14:30;11.40;88.90
68217;DHT22;55037;52.354;4.992;2023-03-19T03:16:58;11.40;89.00
68217;DHT22;55037;52.354;4.992;2023-03-19T03:19:25;11.30;89.00
68217;DHT22;55037;52.354;4.992;2023-03-19T03:21:52;11.30;89.00
68217;DHT22;55037;52.354;4.992;2023-03-19T03:24:20;11.30;89.00
68217;DHT22;55037;52.354;4.992;2023-03-19T03:26:48;11.30;89.00
68217;DHT22;55037;52.354;4.992;2023-03-19T03:29:15;11.20;89.00
68217;DHT22;55037;52.354;4.992;2023-03-19T03:31:42;11.20;88.80
68217;DHT22;55037;52.354;4.992;2023-03-19T03:34:10;11.10;88.80
68217;DHT22;55037;52.354;4.992;2023-03-19T03:36:37;11.10;89.00
68217;DHT22;55037;52.354;4.992;2023-03-19T03:39:04;11.10;89.20
68217;DHT22;55037;52.354;4.992;2023-03-19T03:41:31;11.10;89.10
68217;DHT22;55037;52.354;4.992;2023-03-19T03:44:00;11.10;89.30
68217;DHT22;55037;52.354;4.992;2023-03-19T03:46:27;11.00;89.10
68217;DHT22;55037;52.354;4.992;2023-03-19T03:48:55;11.00;89.10
68217;DHT22;55037;52.354;4.992;2023-03-19T03:51:22;11.00;89.00
68217;DHT22;55037;52.354;4.992;2023-03-19T03:53:50;10.90;89.20
68217;DHT22;55037;52.354;4.992;2023-03-19T03:56:17;10.90;89.30
68217;DHT22;55037;52.354;4.992;2023-03-19T03:58:44;10.90;89.30
68217;DHT22;55037;52.354;4.992;2023-03-19T04:01:15;10.80;89.50
68217;DHT22;55037;52.354;4.992;2023-03-19T04:03:47;10.80;89.50
68217;DHT22;55037;52.354;4.992;2023-03-19T04:06:18;10.80;88.80
68217;DHT22;55037;52.354;4.992;2023-03-19T04:08:53;10.70;89.60
68217;DHT22;55037;52.354;4.992;2023-03-19T04:11:20;10.80;89.70
68217;DHT22;55037;52.354;4.992;2023-03-19T04:13:48;10.80;89.80
68217;DHT22;55037;52.354;4.992;2023-03-19T04:16:15;10.80;89.70
68217;DHT22;55037;52.354;4.992;2023-03-19T04:18:42;10.80;90.10
68217;DHT22;55037;52.354;4.992;2023-03-19T04:21:10;10.90;90.20
68217;DHT22;55037;52.354;4.992;2023-03-19T04:23:37;11.00;90.20
68217;DHT22;55037;52.354;4.992;2023-03-19T04:26:05;11.10;90.10
68217;DHT22;55037;52.354;4.992;2023-03-19T04:28:34;11.10;90.10
68217;DHT22;55037;52.354;4.992;2023-03-19T04:31:04;11.20;90.00
68217;DHT22;55037;52.354;4.992;2023-03-19T04:33:33;11.20;90.00
68217;DHT22;55037;52.354;4.992;2023-03-19T04:36:02;11.20;90.00
68217;DHT22;55037;52.354;4.992;2023-03-19T04:38:29;11.30;89.90
68217;DHT22;55037;52.354;4.992;2023-03-19T04:40:58;11.30;89.80
68217;DHT22;55037;52.354;4.992;2023-03-19T04:43:25;11.30;89.50
68217;DHT22;55037;52.354;4.992;2023-03-19T04:45:53;11.30;89.30
68217;DHT22;55037;52.354;4.992;2023-03-19T04:48:21;11.30;89.20
68217;DHT22;55037;52.354;4.992;2023-03-19T04:50:51;11.30;89.10
68217;DHT22;55037;52.354;4.992;2023-03-19T04:53:19;11.30;89.00
68217;DHT22;55037;52.354;4.992;2023-03-19T04:55:47;11.30;89.00
68217;DHT22;55037;52.354;4.992;2023-03-19T04:58:16;11.20;90.00
68217;DHT22;55037;52.354;4.992;2023-03-19T05:00:48;11.20;89.20
68217;DHT22;55037;52.354;4.992;2023-03-19T05:03:21;11.30;89.30
68217;DHT22;55037;52.354;4.992;2023-03-19T05:05:48;11.30;89.10
68217;DHT22;55037;52.354;4.992;2023-03-19T05:08:16;11.30;89.00
68217;DHT22;55037;52.354;4.992;2023-03-19T05:10:43;11.30;89.00
68217;DHT22;55037;52.354;4.992;2023-03-19T05:13:10;11.30;89.10
68217;DHT22;55037;52.354;4.992;2023-03-19T05:15:43;11.30;89.10
68217;DHT22;55037;52.354;4.992;2023-03-19T05:18:12;11.30;88.80
68217;DHT22;55037;52.354;4.992;2023-03-19T05:20:43;11.30;88.80
68217;DHT22;55037;52.354;4.992;2023-03-19T05:23:21;11.30;88.70
68217;DHT22;55037;52.354;4.992;2023-03-19T05:26:00;11.30;88.60
68217;DHT22;55037;52.354;4.992;2023-03-19T05:28:53;11.30;88.60
68217;DHT22;55037;52.354;4.992;2023-03-19T05:31:29;11.30;88.70
68217;DHT22;55037;52.354;4.992;2023-03-19T05:33:57;11.30;88.70
68217;DHT22;55037;52.354;4.992;2023-03-19T05:36:24;11.30;88.60
68217;DHT22;55037;52.354;4.992;2023-03-19T05:38:58;11.30;88.60
68217;DHT22;55037;52.354;4.992;2023-03-19T05:41:32;11.30;88.60
68217;DHT22;55037;52.354;4.992;2023-03-19T05:44:03;11.30;88.40
68217;DHT22;55037;52.354;4.992;2023-03-19T05:46:51;11.30;88.60
68217;DHT22;55037;52.354;4.992;2023-03-19T05:49:20;11.30;88.50
68217;DHT22;55037;52.354;4.992;2023-03-19T05:51:48;11.30;88.30
68217;DHT22;55037;52.354;4.992;2023-03-19T05:54:15;11.20;88.40
68217;DHT22;55037;52.354;4.992;2023-03-19T05:57:04;11.20;88.30
68217;DHT22;55037;52.354;4.992;2023-03-19T05:59:36;11.20;88.40
68217;DHT22;55037;52.354;4.992;2023-03-19T06:02:34;11.20;88.60
68217;DHT22;55037;52.354;4.992;2023-03-19T06:05:26;11.20;88.60
68217;DHT22;55037;52.354;4.992;2023-03-19T06:07:58;11.10;88.60
68217;DHT22;55037;52.354;4.992;2023-03-19T06:10:34;11.10;88.70
68217;DHT22;55037;52.354;4.992;2023-03-19T06:13:06;11.10;88.90
68217;DHT22;55037;52.354;4.992;2023-03-19T06:16:00;11.20;89.00
68217;DHT22;55037;52.354;4.992;2023-03-19T06:18:35;11.20;88.90
68217;DHT22;55037;52.354;4.992;2023-03-19T06:21:08;11.20;88.80
68217;DHT22;55037;52.354;4.992;2023-03-19T06:23:35;11.30;88.70
68217;DHT22;55037;52.354;4.992;2023-03-19T06:26:04;11.30;88.10
68217;DHT22;55037;52.354;4.992;2023-03-19T06:28:38;11.30;88.10
68217;DHT22;55037;52.354;4.992;2023-03-19T06:31:06;11.20;88.20
68217;DHT22;55037;52.354;4.992;2023-03-19T06:33:52;11.10;88.00
68217;DHT22;55037;52.354;4.992;2023-03-19T06:36:22;11.10;87.70
68217;DHT22;55037;52.354;4.992;2023-03-19T06:38:50;11.10;88.50
68217;DHT22;55037;52.354;4.992;2023-03-19T06:41:17;11.10;88.50
68217;DHT22;55037;52.354;4.992;2023-03-19T06:43:46;11.10;88.70
68217;DHT22;55037;52.354;4.992;2023-03-19T06:46:13;11.10;88.70
68217;DHT22;55037;52.354;4.992;2023-03-19T06:48:41;11.10;88.70
68217;DHT22;55037;52.354;4.992;2023-03-19T06:51:08;11.10;88.60
68217;DHT22;55037;52.354;4.992;2023-03-19T06:53:35;11.10;88.60
68217;DHT22;55037;52.354;4.992;2023-03-19T06:56:03;11.10;88.40
68217;DHT22;55037;52.354;4.992;2023-03-19T06:58:30;11.20;88.50
68217;DHT22;55037;52.354;4.992;2023-03-19T07:00:59;11.20;88.50
68217;DHT22;55037;52.354;4.992;2023-03-19T07:03:26;11.20;88.50
68217;DHT22;55037;52.354;4.992;2023-03-19T07:05:53;11.20;88.40
68217;DHT22;55037;52.354;4.992;2023-03-19T07:08:21;11.20;88.30
68217;DHT22;55037;52.354;4.992;2023-03-19T07:10:48;11.10;87.80
68217;DHT22;55037;52.354;4.992;2023-03-19T07:13:15;11.10;87.80
68217;DHT22;55037;52.354;4.992;2023-03-19T07:15:42;11.10;87.90
68217;DHT22;55037;52.354;4.992;2023-03-19T07:18:09;11.10;87.80
68217;DHT22;55037;52.354;4.992;2023-03-19T07:20:37;11.00;87.60
68217;DHT22;55037;52.354;4.992;2023-03-19T07:23:04;11.00;87.90
68217;DHT22;55037;52.354;4.992;2023-03-19T07:25:31;11.00;87.60
68217;DHT22;55037;52.354;4.992;2023-03-19T07:27:58;10.90;87.50
68217;DHT22;55037;52.354;4.992;2023-03-19T07:30:25;10.90;88.00
68217;DHT22;55037;52.354;4.992;2023-03-19T07:32:53;10.90;88.20
68217;DHT22;55037;52.354;4.992;2023-03-19T07:35:21;11.00;88.20
68217;DHT22;55037;52.354;4.992;2023-03-19T07:37:49;11.00;88.20
68217;DHT22;55037;52.354;4.992;2023-03-19T07:40:16;11.10;88.10
68217;DHT22;55037;52.354;4.992;2023-03-19T07:42:44;11.10;87.90
68217;DHT22;55037;52.354;4.992;2023-03-19T07:45:12;11.20;87.90
68217;DHT22;55037;52.354;4.992;2023-03-19T07:47:39;11.20;87.80
68217;DHT22;55037;52.354;4.992;2023-03-19T07:50:07;11.20;87.80
68217;DHT22;55037;52.354;4.992;2023-03-19T07:52:35;11.30;87.70
68217;DHT22;55037;52.354;4.992;2023-03-19T07:55:02;11.40;87.70
68217;DHT22;55037;52.354;4.992;2023-03-19T07:57:29;11.50;87.60
68217;DHT22;55037;52.354;4.992;2023-03-19T07:59:58;11.50;87.10
68217;DHT22;55037;52.354;4.992;2023-03-19T08:02:26;11.60;87.60
68217;DHT22;55037;52.354;4.992;2023-03-19T08:04:53;11.70;87.50
68217;DHT22;55037;52.354;4.992;2023-03-19T08:07:21;11.80;87.60
68217;DHT22;55037;52.354;4.992;2023-03-19T08:09:49;12.10;87.40
68217;DHT22;55037;52.354;4.992;2023-03-19T08:12:16;12.10;86.60
68217;DHT22;55037;52.354;4.992;2023-03-19T08:14:43;12.20;86.70
68217;DHT22;55037;52.354;4.992;2023-03-19T08:17:10;12.40;86.70
68217;DHT22;55037;52.354;4.992;2023-03-19T08:19:38;12.50;86.20
68217;DHT22;55037;52.354;4.992;2023-03-19T08:22:05;12.60;85.90
68217;DHT22;55037;52.354;4.992;2023-03-19T08:24:32;12.60;86.00
68217;DHT22;55037;52.354;4.992;2023-03-19T08:26:59;12.80;85.70
68217;DHT22;55037;52.354;4.992;2023-03-19T08:29:27;12.80;85.00
68217;DHT22;55037;52.354;4.992;2023-03-19T08:31:54;12.70;84.40
68217;DHT22;55037;52.354;4.992;2023-03-19T08:34:23;12.60;84.60
68217;DHT22;55037;52.354;4.992;2023-03-19T08:36:50;12.60;84.90
68217;DHT22;55037;52.354;4.992;2023-03-19T08:39:18;12.70;84.70
68217;DHT22;55037;52.354;4.992;2023-03-19T08:41:45;12.60;84.50
68217;DHT22;55037;52.354;4.992;2023-03-19T08:44:12;12.70;84.30
68217;DHT22;55037;52.354;4.992;2023-03-19T08:46:40;12.60;84.20
68217;DHT22;55037;52.354;4.992;2023-03-19T08:49:08;12.70;84.80
68217;DHT22;55037;52.354;4.992;2023-03-19T08:51:36;12.70;84.70
68217;DHT22;55037;52.354;4.992;2023-03-19T08:54:03;12.70;83.80
68217;DHT22;55037;52.354;4.992;2023-03-19T08:56:30;12.70;83.70
68217;DHT22;55037;52.354;4.992;2023-03-19T08:58:58;12.60;83.80
68217;DHT22;55037;52.354;4.992;2023-03-19T09:01:25;12.50;83.80
68217;DHT22;55037;52.354;4.992;2023-03-19T09:03:52;12.40;84.20
68217;DHT22;55037;52.354;4.992;2023-03-19T09:06:20;12.30;84.20
68217;DHT22;55037;52.354;4.992;2023-03-19T09:08:47;12.30;84.70
68217;DHT22;55037;52.354;4.992;2023-03-19T09:11:14;12.30;84.70
68217;DHT22;55037;52.354;4.992;2023-03-19T09:13:43;12.30;84.80
68217;DHT22;55037;52.354;4.992;2023-03-19T09:16:10;12.30;85.10
68217;DHT22;55037;52.354;4.992;2023-03-19T09:18:37;12.40;85.20
68217;DHT22;55037;52.354;4.992;2023-03-19T09:21:05;12.40;85.00
68217;DHT22;55037;52.354;4.992;2023-03-19T09:23:32;12.50;85.00
68217;DHT22;55037;52.354;4.992;2023-03-19T09:25:59;12.60;85.00
68217;DHT22;55037;52.354;4.992;2023-03-19T09:28:27;12.80;85.00
68217;DHT22;55037;52.354;4.992;2023-03-19T09:30:54;12.90;84.90
68217;DHT22;55037;52.354;4.992;2023-03-19T09:33:22;13.00;84.60
68217;DHT22;55037;52.354;4.992;2023-03-19T09:35:51;13.00;84.40
68217;DHT22;55037;52.354;4.992;2023-03-19T09:38:20;13.00;84.00
68217;DHT22;55037;52.354;4.992;2023-03-19T09:41:11;13.10;84.80
68217;DHT22;55037;52.354;4.992;2023-03-19T09:44:10;13.40;84.60
68217;DHT22;55037;52.354;4.992;2023-03-19T09:49:27;13.50;83.20
68217;DHT22;55037;52.354;4.992;2023-03-19T09:54:49;13.70;83.70
68217;DHT22;55037;52.354;4.992;2023-03-19T09:57:18;13.80;83.20
68217;DHT22;55037;52.354;4.992;2023-03-19T09:59:46;13.80;82.30
68217;DHT22;55037;52.354;4.992;2023-03-19T10:02:39;13.80;82.40
68217;DHT22;55037;52.354;4.992;2023-03-19T10:05:31;13.60;82.20
68217;DHT22;55037;52.354;4.992;2023-03-19T10:08:18;13.60;82.20
68217;DHT22;55037;52.354;4.992;2023-03-19T10:15:49;13.40;83.10
68217;DHT22;55037;52.354;4.992;2023-03-19T10:18:23;13.50;83.40
68217;DHT22;55037;52.354;4.992;2023-03-19T10:20:56;13.70;83.30
68217;DHT22;55037;52.354;4.992;2023-03-19T10:25:58;13.80;82.20
68217;DHT22;55037;52.354;4.992;2023-03-19T10:28:27;13.80;82.10
68217;DHT22;55037;52.354;4.992;2023-03-19T10:33:50;13.80;81.70
68217;DHT22;55037;52.354;4.992;2023-03-19T10:36:19;13.90;81.00
68217;DHT22;55037;52.354;4.992;2023-03-19T10:38:51;13.90;81.70
68217;DHT22;55037;52.354;4.992;2023-03-19T10:44:31;14.20;80.30
68217;DHT22;55037;52.354;4.992;2023-03-19T10:47:10;14.20;80.10
68217;DHT22;55037;52.354;4.992;2023-03-19T10:49:38;14.00;79.30
68217;DHT22;55037;52.354;4.992;2023-03-19T10:54:43;14.00;80.60
68217;DHT22;55037;52.354;4.992;2023-03-19T10:57:26;14.20;80.40
68217;DHT22;55037;52.354;4.992;2023-03-19T10:59:54;14.50;80.40
68217;DHT22;55037;52.354;4.992;2023-03-19T11:02:24;14.70;79.50
68217;DHT22;55037;52.354;4.992;2023-03-19T11:05:17;14.80;78.90
68217;DHT22;55037;52.354;4.992;2023-03-19T11:08:17;14.90;78.20
68217;DHT22;55037;52.354;4.992;2023-03-19T11:11:01;15.00;78.70
68217;DHT22;55037;52.354;4.992;2023-03-19T11:13:28;15.20;78.20
68217;DHT22;55037;52.354;4.992;2023-03-19T11:15:59;15.30;77.70
68217;DHT22;55037;52.354;4.992;2023-03-19T11:18:30;15.20;76.50
68217;DHT22;55037;52.354;4.992;2023-03-19T11:21:00;15.10;76.60
68217;DHT22;55037;52.354;4.992;2023-03-19T11:23:39;15.10;76.90
68217;DHT22;55037;52.354;4.992;2023-03-19T11:26:06;14.90;76.70
68217;DHT22;55037;52.354;4.992;2023-03-19T11:28:36;14.80;76.00
68217;DHT22;55037;52.354;4.992;2023-03-19T11:31:19;14.50;76.10
68217;DHT22;55037;52.354;4.992;2023-03-19T11:39:27;14.30;77.60
68217;DHT22;55037;52.354;4.992;2023-03-19T11:42:28;14.30;76.90
68217;DHT22;55037;52.354;4.992;2023-03-19T11:45:17;14.30;77.80
68217;DHT22;55037;52.354;4.992;2023-03-19T11:50:48;14.40;76.90
68217;DHT22;55037;52.354;4.992;2023-03-19T11:53:52;14.50;77.20
68217;DHT22;55037;52.354;4.992;2023-03-19T12:02:28;14.40;76.60
68217;DHT22;55037;52.354;4.992;2023-03-19T12:05:18;14.40;76.60
68217;DHT22;55037;52.354;4.992;2023-03-19T12:08:25;14.20;76.50
68217;DHT22;55037;52.354;4.992;2023-03-19T12:27:39;14.00;76.80
68217;DHT22;55037;52.354;4.992;2023-03-19T12:30:31;14.00;76.70
68217;DHT22;55037;52.354;4.992;2023-03-19T12:35:47;14.00;77.30
68217;DHT22;55037;52.354;4.992;2023-03-19T12:38:42;14.10;77.20
68217;DHT22;55037;52.354;4.992;2023-03-19T12:41:18;14.20;76.80
68217;DHT22;55037;52.354;4.992;2023-03-19T12:44:01;14.20;76.40
68217;DHT22;55037;52.354;4.992;2023-03-19T12:49:15;14.20;76.00
68217;DHT22;55037;52.354;4.992;2023-03-19T12:51:54;14.20;76.50
68217;DHT22;55037;52.354;4.992;2023-03-19T12:54:26;14.20;76.10
68217;DHT22;55037;52.354;4.992;2023-03-19T12:59:57;14.20;76.10
68217;DHT22;55037;52.354;4.992;2023-03-19T13:02:41;14.10;76.30
68217;DHT22;55037;52.354;4.992;2023-03-19T13:11:18;14.10;76.50
68217;DHT22;55037;52.354;4.992;2023-03-19T13:13:49;14.10;76.50
68217;DHT22;55037;52.354;4.992;2023-03-19T13:19:20;14.20;76.30
68217;DHT22;55037;52.354;4.992;2023-03-19T13:21:53;14.20;76.10
68217;DHT22;55037;52.354;4.992;2023-03-19T13:24:30;14.20;76.10
68217;DHT22;55037;52.354;4.992;2023-03-19T13:27:00;14.20;76.10
68217;DHT22;55037;52.354;4.992;2023-03-19T13:29:30;14.30;75.50
68217;DHT22;55037;52.354;4.992;2023-03-19T13:32:06;14.30;75.70
68217;DHT22;55037;52.354;4.992;2023-03-19T13:34:35;14.40;75.50
68217;DHT22;55037;52.354;4.992;2023-03-19T13:37:24;14.60;75.50
68217;DHT22;55037;52.354;4.992;2023-03-19T13:39:50;14.70;74.90
68217;DHT22;55037;52.354;4.992;2023-03-19T13:42:38;14.80;74.10
68217;DHT22;55037;52.354;4.992;2023-03-19T13:47:48;14.70;73.70
68217;DHT22;55037;52.354;4.992;2023-03-19T13:52:51;14.60;74.00
68217;DHT22;55037;52.354;4.992;2023-03-19T13:55:32;14.60;74.20
68217;DHT22;55037;52.354;4.992;2023-03-19T14:03:25;14.90;73.80
68217;DHT22;55037;52.354;4.992;2023-03-19T14:05:55;14.90;73.80
68217;DHT22;55037;52.354;4.992;2023-03-19T14:08:26;14.90;73.50
68217;DHT22;55037;52.354;4.992;2023-03-19T14:11:01;14.80;73.60
68217;DHT22;55037;52.354;4.992;2023-03-19T14:13:42;14.80;73.70
68217;DHT22;55037;52.354;4.992;2023-03-19T14:16:34;14.80;73.50
68217;DHT22;55037;52.354;4.992;2023-03-19T14:19:10;14.70;73.40
68217;DHT22;55037;52.354;4.992;2023-03-19T14:21:59;14.70;73.50
68217;DHT22;55037;52.354;4.992;2023-03-19T14:27:28;14.70;73.60
68217;DHT22;55037;52.354;4.992;2023-03-19T14:30:07;14.70;73.50
68217;DHT22;55037;52.354;4.992;2023-03-19T14:32:38;14.70;73.50
68217;DHT22;55037;52.354;4.992;2023-03-19T14:35:14;14.60;73.60
68217;DHT22;55037;52.354;4.992;2023-03-19T14:37:48;14.60;73.70
68217;DHT22;55037;52.354;4.992;2023-03-19T14:40:19;14.50;73.70
68217;DHT22;55037;52.354;4.992;2023-03-19T14:45:51;14.40;74.20
68217;DHT22;55037;52.354;4.992;2023-03-19T14:56:51;14.70;73.70
68217;DHT22;55037;52.354;4.992;2023-03-19T14:59:18;14.70;74.10
68217;DHT22;55037;52.354;4.992;2023-03-19T15:01:51;14.70;74.00
68217;DHT22;55037;52.354;4.992;2023-03-19T15:04:23;14.60;73.90
68217;DHT22;55037;52.354;4.992;2023-03-19T15:06:55;14.50;73.60
68217;DHT22;55037;52.354;4.992;2023-03-19T15:17:29;14.00;74.60
68217;DHT22;55037;52.354;4.992;2023-03-19T15:19:59;14.00;74.40
68217;DHT22;55037;52.354;4.992;2023-03-19T15:22:30;14.00;74.30
68217;DHT22;55037;52.354;4.992;2023-03-19T15:25:09;13.90;74.60
68217;DHT22;55037;52.354;4.992;2023-03-19T15:27:39;13.80;74.80
68217;DHT22;55037;52.354;4.992;2023-03-19T15:30:22;13.80;75.00
68217;DHT22;55037;52.354;4.992;2023-03-19T15:32:50;13.90;75.10
68217;DHT22;55037;52.354;4.992;2023-03-19T15:35:35;13.90;74.70
68217;DHT22;55037;52.354;4.992;2023-03-19T15:38:10;13.80;74.70
68217;DHT22;55037;52.354;4.992;2023-03-19T15:40:40;13.80;75.00
68217;DHT22;55037;52.354;4.992;2023-03-19T15:43:10;13.70;74.90
68217;DHT22;55037;52.354;4.992;2023-03-19T15:45:41;13.70;74.90
68217;DHT22;55037;52.354;4.992;2023-03-19T15:48:18;13.60;75.20
68217;DHT22;55037;52.354;4.992;2023-03-19T15:50:50;13.60;75.40
68217;DHT22;55037;52.354;4.992;2023-03-19T15:53:21;13.50;75.70
68217;DHT22;55037;52.354;4.992;2023-03-19T15:55:51;13.50;75.80
68217;DHT22;55037;52.354;4.992;2023-03-19T15:58:28;13.50;76.00
68217;DHT22;55037;52.354;4.992;2023-03-19T16:00:58;13.50;76.00
68217;DHT22;55037;52.354;4.992;2023-03-19T16:03:38;13.50;76.30
68217;DHT22;55037;52.354;4.992;2023-03-19T16:06:35;13.50;76.50
68217;DHT22;55037;52.354;4.992;2023-03-19T16:09:22;13.60;76.60
68217;DHT22;55037;52.354;4.992;2023-03-19T16:11:51;13.60;76.40
68217;DHT22;55037;52.354;4.992;2023-03-19T16:14:40;13.60;76.10
68217;DHT22;55037;52.354;4.992;2023-03-19T16:17:16;13.60;76.20
68217;DHT22;55037;52.354;4.992;2023-03-19T16:19:50;13.60;76.40
68217;DHT22;55037;52.354;4.992;2023-03-19T16:22:36;13.60;76.30
68217;DHT22;55037;52.354;4.992;2023-03-19T16:25:03;13.60;76.40
68217;DHT22;55037;52.354;4.992;2023-03-19T16:27:39;13.50;76.10
68217;DHT22;55037;52.354;4.992;2023-03-19T16:30:26;13.40;76.20
68217;DHT22;55037;52.354;4.992;2023-03-19T16:32:58;13.30;76.50
68217;DHT22;55037;52.354;4.992;2023-03-19T16:35:27;13.20;77.70
68217;DHT22;55037;52.354;4.992;2023-03-19T16:43:21;13.00;77.20
68217;DHT22;55037;52.354;4.992;2023-03-19T16:45:51;13.00;77.40
68217;DHT22;55037;52.354;4.992;2023-03-19T16:48:18;13.00;77.70
68217;DHT22;55037;52.354;4.992;2023-03-19T16:50:45;13.00;77.60
68217;DHT22;55037;52.354;4.992;2023-03-19T16:53:21;12.90;77.70
68217;DHT22;55037;52.354;4.992;2023-03-19T16:55:49;12.90;78.00
68217;DHT22;55037;52.354;4.992;2023-03-19T16:58:24;12.80;78.20
68217;DHT22;55037;52.354;4.992;2023-03-19T17:00:52;12.80;78.10
68217;DHT22;55037;52.354;4.992;2023-03-19T17:03:19;12.70;78.30
68217;DHT22;55037;52.354;4.992;2023-03-19T17:05:47;12.70;78.60
68217;DHT22;55037;52.354;4.992;2023-03-19T17:08:14;12.70;78.70
68217;DHT22;55037;52.354;4.992;2023-03-19T17:10:46;12.60;78.60
68217;DHT22;55037;52.354;4.992;2023-03-19T17:13:18;12.60;78.80
68217;DHT22;55037;52.354;4.992;2023-03-19T17:15:48;12.60;78.90
68217;DHT22;55037;52.354;4.992;2023-03-19T17:18:20;12.60;78.70
68217;DHT22;55037;52.354;4.992;2023-03-19T17:20:51;12.60;78.70
68217;DHT22;55037;52.354;4.992;2023-03-19T17:23:19;12.60;79.00
68217;DHT22;55037;52.354;4.992;2023-03-19T17:25:50;12.50;79.20
68217;DHT22;55037;52.354;4.992;2023-03-19T17:28:18;12.50;79.30
68217;DHT22;55037;52.354;4.992;2023-03-19T17:30:45;12.50;79.30
68217;DHT22;55037;52.354;4.992;2023-03-19T17:33:27;12.50;79.30
68217;DHT22;55037;52.354;4.992;2023-03-19T17:35:56;12.50;79.50
68217;DHT22;55037;52.354;4.992;2023-03-19T17:38:30;12.50;79.50
68217;DHT22;55037;52.354;4.992;2023-03-19T17:40:58;12.40;79.50
68217;DHT22;55037;52.354;4.992;2023-03-19T17:43:26;12.40;79.60
68217;DHT22;55037;52.354;4.992;2023-03-19T17:45:54;12.40;79.80
68217;DHT22;55037;52.354;4.992;2023-03-19T17:48:25;12.30;80.00
68217;DHT22;55037;52.354;4.992;2023-03-19T17:50:57;12.30;80.10
68217;DHT22;55037;52.354;4.992;2023-03-19T17:53:25;12.30;80.20
68217;DHT22;55037;52.354;4.992;2023-03-19T17:55:53;12.20;80.30
68217;DHT22;55037;52.354;4.992;2023-03-19T17:58:21;12.20;80.40